Terminal Aerodrome Forecast
Issued by NWS

Home | Current Version | Previous Version | Graphics & Text | Print | Product List | Glossary On
Versions: 1 2 3 4 5 6 7 8 9 10 11 12 13 14 15 16 17 18 19 20 21 22 23 24 25 26 27 28 29 30 31 32 33
000
FTUS43 KLOT 272204 AAB
TAFMDW
TAF AMD
KMDW 272204Z 2722/2818 08012KT P6SM FEW060 BKN250
     FM280100 08007KT P6SM BKN250
     FM281000 11004KT P6SM SKC
     FM281600 14008KT P6SM FEW050=

USA.gov is the U.S. government's official web portal to all federal, state and local government web resources and services.